Weather at Toronto Aerodrome [CLOSED]

Public forecast

Using degrees Celsius for public forecast. Weather courtesy of forecast.io.

Closest aviation weather report (METAR) to Toronto Aerodrome

Closest report is Billy Bishop Toronto City Centre Airport, 7.8 nm (14.5 km) SSE.

2024/05/21 12:00 (retrieved 42 minutes ago)

CYTZ 211200Z AUTO VRB04KT 9SM CLR 19/16 A2989 RMK SLP122 DENSITY ALT 900FT

Closest aviation forecast (TAF) to Toronto Aerodrome

Closest forecast is Billy Bishop Toronto City Centre Airport, 7.8 nm (14.5 km) SSE.

2024/05/21 08:00 Ammendment (retrieved 5 hours ago)

TAF AMD CYTZ 210857Z 2108/2208 35008KT P6SM BKN080 TEMPO 2108/2110 P6SM -SHRA VCTS BKN070CB FM211200 07007KT P6SM BKN070 TEMPO 2112/2114 P6SM -SHRA FM211700 17010KT P6SM SCT060 FM212200 25010KT P6SM SKC BECMG 2200/2202 07008KT RMK FCST BASED ON AUTO OBS NXT FCST BY 211400Z